Latest Weather Observations for Maria Island

IDT60801

Issued at 5:31 pm EDT Sunday 1 March 2015 (issued every 30 minutes, with the page automatically refreshed every 10 minutes)

About weather observations | Map of weather stations | Latest weather observations for TAS | Other Formats
Station Details ID: 092124 Name: MARIA ISLAND (POINT LESUEUR) Lat: -42.66 Lon: 148.02 Height: 28.0 m
Data from the previous 72 hours. | See also: Recent months at Maria Island
Date/Time
EDT
Temp
°C
App
Temp
°C
Dew
Point
Rel
Hum
%
Delta-T
°C
Wind Press
QNH
hPa
Press
MSL
hPa
Rain
since 9 am
mm
Dir
 
Spd
km/h
Gust
km/h
Spd
kts
Gust
kts
01/05:30pm 16.0 7.6 9.7 66 3.3 SSW 44 56 24 30 1011.3 1011.2 0.0
01/05:00pm 16.4 8.2 10.3 67 3.2 SSW 44 54 24 29 1011.2 1011.1 0.0
01/04:30pm 16.3 8.9 9.7 65 3.4 SSW 39 46 21 25 1011.1 1011.0 0.0
01/04:00pm 17.7 9.3 9.1 57 4.5 SSW 43 57 23 31 1010.4 1010.3 0.0
01/03:30pm 17.4 10.0 9.8 61 4.0 SSW 39 44 21 24 1010.2 1010.1 0.0
01/03:00pm 17.1 10.5 10.0 63 3.8 SSW 35 43 19 23 1009.8 1009.7 0.0
01/02:30pm 16.4 8.4 8.9 61 3.9 SSW 41 48 22 26 1009.3 1009.2 0.0
01/02:00pm 17.9 12.6 9.8 59 4.3 SSW 28 37 15 20 1009.2 1009.1 0.0
01/01:30pm 18.5 11.0 7.9 50 5.4 SSW 37 43 20 23 1008.6 1008.5 0.0
01/01:00pm 17.6 10.2 8.5 55 4.7 SW 37 44 20 24 1008.3 1008.2 0.0
01/12:30pm 18.1 11.9 9.2 56 4.7 SW 32 43 17 23 1008.0 1007.9 0.0
01/12:00pm 17.9 11.1 9.3 57 4.5 SSW 35 48 19 26 1007.7 1007.6 0.0
01/11:30am 16.7 8.9 8.4 58 4.2 SW 39 50 21 27 1007.3 1007.2 0.0
01/11:00am 16.7 11.6 9.1 61 3.9 SW 26 35 14 19 1007.1 1007.0 0.0
01/10:30am 16.0 10.1 9.2 64 3.5 SW 30 39 16 21 1006.5 1006.4 0.0
01/10:00am 16.3 8.7 9.0 62 3.8 SW 39 48 21 26 1005.7 1005.6 0.0
01/09:30am 16.3 10.9 9.5 64 3.6 SW 28 35 15 19 1005.2 1005.1 0.0
01/09:00am 16.0 10.7 9.7 66 3.3 WSW 28 43 15 23 1004.6 1004.5 1.8
01/08:30am 16.1 11.4 9.1 63 3.6 W 24 41 13 22 1003.9 1003.8 1.8
01/08:00am 15.8 10.9 8.5 62 3.7 W 24 33 13 18 1003.4 1003.3 1.8
01/07:30am 15.3 11.2 8.8 65 3.3 WSW 20 28 11 15 1002.7 1002.6 1.8
01/07:00am 15.3 11.4 8.8 65 3.3 W 19 26 10 14 1001.9 1001.8 1.8
01/06:30am 15.3 10.3 8.1 62 3.6 W 24 35 13 19 1001.2 1001.1 1.8
01/06:00am 15.5 11.4 8.0 61 3.8 W 19 32 10 17 1000.7 1000.6 1.8
01/05:30am 15.4 11.8 8.4 63 3.5 W 17 24 9 13 1000.4 1000.3 1.8
01/05:00am 15.9 11.7 8.4 61 3.8 WSW 20 35 11 19 1000.3 1000.2 1.8
01/04:30am 16.4 10.3 8.4 59 4.1 W 30 39 16 21 999.7 999.6 1.8
01/04:00am 16.7 11.1 8.7 59 4.1 W 28 43 15 23 999.5 999.4 1.8
01/03:30am 16.8 12.9 9.5 62 3.8 WNW 20 28 11 15 999.7 999.6 1.8
01/03:00am 17.6 12.4 8.7 56 4.6 W 26 35 14 19 999.6 999.5 1.8
01/02:30am 17.6 13.7 10.7 64 3.7 WNW 22 28 12 15 999.5 999.4 1.8
01/02:00am 17.7 14.6 11.5 67 3.4 WNW 19 22 10 12 999.4 999.3 1.8
01/01:30am 18.7 14.4 12.2 66 3.6 W 26 33 14 18 999.2 999.1 1.8
01/01:00am 18.4 17.4 15.5 83 1.7 NW 15 20 8 11 998.9 998.9 1.8
01/12:30am 18.6 17.3 15.8 84 1.7 NNW 17 17 9 9 998.8 998.8 1.8
 
Date/Time
EDT
Temp
°C
App
Temp
°C
Dew
Point
Rel
Hum
%
Delta-T
°C
Wind Press
QNH
hPa
Press
MSL
hPa
Rain
since 9 am
mm
Dir
 
Spd
km/h
Gust
km/h
Spd
kts
Gust
kts
28/11:30pm 18.3 17.8 15.9 86 1.4 N 13 15 7 8 998.3 998.3 1.8
28/11:00pm 19.0 18.6 15.3 79 2.2 NNW 11 15 6 8 998.2 998.2 1.8
28/10:30pm 18.8 17.4 15.5 81 1.9 NNW 17 20 9 11 998.5 998.5 1.8
28/10:00pm 18.1 17.1 15.7 86 1.4 N 15 17 8 9 998.2 998.2 1.8
28/09:30pm 18.7 15.9 15.4 81 1.9 N 24 30 13 16 997.6 997.6 1.8
28/09:00pm 18.6 15.9 15.7 83 1.7 N 24 28 13 15 997.8 997.8 1.8
28/08:30pm 18.8 15.7 15.7 82 1.8 N 26 30 14 16 997.5 997.5 1.8
28/08:00pm 19.2 14.0 15.5 79 2.2 N 37 44 20 24 996.8 996.8 1.8
28/07:30pm 19.4 15.9 15.5 78 2.3 N 28 32 15 17 997.1 997.1 1.8
28/07:00pm 19.9 15.0 15.3 75 2.7 N 35 44 19 24 997.2 997.2 1.8
28/06:30pm 19.8 16.3 15.4 76 2.6 N 28 35 15 19 997.8 997.8 1.8
28/06:00pm 20.5 16.8 15.1 71 3.2 N 28 33 15 18 997.8 997.8 1.8
28/05:30pm 20.8 16.4 15.1 70 3.4 N 32 41 17 22 998.1 998.1 1.8
28/05:00pm 19.6 14.4 14.6 73 2.9 N 35 48 19 26 998.5 998.5 1.8
28/04:30pm 19.5 13.0 13.9 70 3.2 N 41 52 22 28 998.4 998.4 1.6
28/04:00pm 19.5 12.4 13.4 68 3.5 N 43 50 23 27 998.9 998.9 1.6
28/03:30pm 18.6 13.3 14.3 76 2.5 N 35 43 19 23 999.6 999.5 1.6
28/03:00pm 18.2 13.9 14.5 79 2.1 N 30 33 16 18 1000.1 1000.0 1.6
28/02:30pm 17.9 14.7 14.2 79 2.1 NNE 24 32 13 17 1000.8 1000.7 1.6
28/02:00pm 17.2 14.2 14.7 85 1.4 N 24 30 13 16 1001.3 1001.2 1.6
28/01:30pm 16.2 13.4 14.2 88 1.1 NNE 22 26 12 14 1001.6 1001.5 1.6
28/01:00pm 16.0 12.1 14.4 90 0.9 N 28 33 15 18 1002.1 1002.0 1.6
28/12:30pm 16.1 10.4 14.3 89 1.0 N 37 43 20 23 1002.0 1001.9 0.4
28/12:00pm 17.0 10.5 12.9 77 2.3 N 39 44 21 24 1002.6 1002.5 0.0
28/11:30am 17.1 10.2 12.8 76 2.4 NNE 41 48 22 26 1002.4 1002.3 0.0
28/11:00am 16.8 10.3 12.9 78 2.2 NNE 39 48 21 26 1003.2 1003.1 0.0
28/10:30am 16.4 10.6 12.8 79 2.0 N 35 41 19 22 1003.8 1003.7 0.0
28/10:00am 16.2 10.7 12.4 78 2.1 N 33 39 18 21 1004.3 1004.2 0.0
28/09:30am 16.2 11.3 12.4 78 2.1 N 30 35 16 19 1004.9 1004.8 0.0
28/09:00am 16.3 11.3 12.1 76 2.3 N 30 35 16 19 1005.0 1004.9 1.0
28/08:30am 16.1 12.1 11.7 75 2.4 NNE 24 32 13 17 1005.2 1005.1 1.0
28/08:00am 14.9 11.7 11.1 78 2.0 NNE 19 20 10 11 1005.7 1005.6 1.0
28/07:30am 14.5 13.4 9.9 74 2.4 NNE 6 9 3 5 1006.4 1006.3 1.0
28/07:00am 14.0 13.9 9.6 75 2.3 CALM 0 0 0 0 1006.7 1006.6 1.0
28/06:30am 13.7 12.9 9.7 77 2.1 E 4 6 2 3 1007.0 1006.9 1.0
28/06:00am 14.1 12.8 9.9 76 2.2 NNE 7 9 4 5 1007.0 1006.9 1.0
28/05:30am 13.6 12.4 9.6 77 2.0 NE 6 9 3 5 1007.4 1007.3 1.0
28/05:00am 13.8 12.9 9.3 74 2.3 NNW 4 6 2 3 1007.7 1007.6 1.0
28/04:30am 13.8 13.3 9.5 75 2.2 WNW 2 6 1 3 1008.2 1008.1 1.0
28/04:00am 13.9 13.4 9.3 74 2.4 S 2 6 1 3 1008.5 1008.4 1.0
28/03:30am 14.0 13.5 9.4 74 2.4 SW 2 4 1 2 1008.9 1008.8 1.0
28/03:00am 14.2 13.3 9.4 73 2.5 SSE 4 7 2 4 1009.0 1008.9 1.0
28/02:30am 14.2 12.1 9.6 74 2.4 S 11 13 6 7 1009.2 1009.1 1.0
28/02:00am 14.2 11.6 9.4 73 2.5 SSW 13 17 7 9 1009.3 1009.2 1.0
28/01:30am 14.2 10.9 9.4 73 2.5 SSW 17 22 9 12 1009.8 1009.7 1.0
28/01:00am 14.2 10.9 9.4 73 2.5 SSW 17 22 9 12 1010.0 1009.9 1.0
28/12:30am 14.2 9.8 9.0 71 2.6 SSW 22 26 12 14 1010.1 1010.0 1.0
28/12:00am 14.4 10.2 9.8 74 2.4 SSW 22 26 12 14 1010.3 1010.2 1.0
 
Date/Time
EDT
Temp
°C
App
Temp
°C
Dew
Point
Rel
Hum
%
Delta-T
°C
Wind Press
QNH
hPa
Press
MSL
hPa
Rain
since 9 am
mm
Dir
 
Spd
km/h
Gust
km/h
Spd
kts
Gust
kts
27/11:30pm 14.3 10.4 9.5 73 2.5 SSW 20 28 11 15 1010.3 1010.2 1.0
27/11:00pm 14.4 10.5 9.6 73 2.5 SSW 20 26 11 14 1010.3 1010.2 1.0
27/10:30pm 14.5 10.9 9.7 73 2.5 SSW 19 24 10 13 1010.4 1010.3 1.0
27/10:00pm 14.5 10.7 9.9 74 2.4 S 20 28 11 15 1010.5 1010.4 1.0
27/09:30pm 14.6 9.3 9.8 73 2.5 S 28 32 15 17 1010.2 1010.1 1.0
27/09:00pm 14.7 8.5 10.1 74 2.4 SSW 33 41 18 22 1010.0 1009.9 1.0
27/08:30pm 14.7 8.6 10.3 75 2.3 SSW 33 39 18 21 1009.6 1009.5 1.0
27/08:00pm 15.0 9.7 11.2 78 2.0 SSW 30 37 16 20 1009.3 1009.2 1.0
27/07:30pm 14.9 9.2 11.7 81 1.7 SSW 33 37 18 20 1009.1 1009.0 1.0
27/07:00pm 15.1 7.5 12.4 84 1.5 SW 44 52 24 28 1008.9 1008.8 1.0
27/06:43pm 15.1 11.3 12.4 84 1.5 S 24 43 13 23 1008.9 1008.8 1.0
27/06:30pm 15.9 14.0 14.1 89 1.0 S 17 20 9 11 1009.0 1008.9 1.0
27/06:00pm 15.8 13.3 14.0 89 1.0 S 20 24 11 13 1008.8 1008.7 1.0
27/05:30pm 16.3 15.5 14.0 86 1.3 SSE 11 17 6 9 1008.3 1008.2 1.0
27/05:00pm 16.5 16.2 13.4 82 1.7 SSE 7 9 4 5 1008.0 1007.9 1.0
27/04:30pm 16.9 16.5 14.0 83 1.6 SSW 9 13 5 7 1008.1 1008.0 1.0
27/04:00pm 16.4 15.9 13.9 85 1.4 SSW 9 11 5 6 1008.3 1008.2 1.0
27/03:30pm 16.1 15.6 13.8 86 1.3 SW 9 11 5 6 1008.6 1008.5 1.0
27/03:00pm 15.9 15.4 13.7 87 1.2 SW 9 13 5 7 1008.5 1008.4 1.0
27/02:30pm 16.4 16.2 13.7 84 1.5 SE 7 11 4 6 1008.3 1008.2 1.0
27/02:00pm 16.1 15.3 13.9 87 1.2 ESE 11 17 6 9 1008.7 1008.6 1.0
27/01:30pm 15.8 16.0 14.2 90 0.9 SSE 6 9 3 5 1009.4 1009.3 1.0
27/01:00pm 15.2 15.6 13.7 91 0.8 SSE 4 7 2 4 1009.5 1009.4 1.0
27/12:30pm 14.7 15.0 13.4 92 0.7 W 4 7 2 4 1009.5 1009.4 1.0
27/12:00pm 14.7 15.0 13.4 92 0.7 WNW 4 7 2 4 1009.8 1009.7 1.0
27/11:30am 14.4 13.6 12.8 90 0.9 E 9 11 5 6 1010.3 1010.2 0.8
27/11:00am 14.5 13.7 12.9 90 0.9 ESE 9 13 5 7 1010.5 1010.4 0.6
27/10:30am 14.3 13.5 12.9 91 0.8 ESE 9 13 5 7 1010.8 1010.7 0.6
27/10:00am 13.9 12.8 11.9 88 1.1 ESE 9 15 5 8 1011.1 1011.0 0.0
27/09:30am 14.8 12.7 11.2 79 1.9 ENE 13 19 7 10 1010.5 1010.4 0.0
27/09:00am 14.7 12.7 10.3 75 2.3 ENE 11 15 6 8 1010.1 1010.0 0.0
27/08:30am 14.7 14.0 9.9 73 2.5 E 4 6 2 3 1010.8 1010.7 0.0
27/08:00am 14.4 13.7 8.6 68 2.9 SE 2 4 1 2 1011.1 1011.0 0.0
27/07:30am 14.3 13.2 8.5 68 2.9 SE 4 6 2 3 1011.1 1011.0 0.0
27/07:00am 14.3 13.2 8.3 67 3.0 ENE 4 9 2 5 1010.7 1010.6 0.0
27/06:30am 14.0 12.8 8.2 68 2.9 E 4 6 2 3 1010.4 1010.3 0.0
27/06:00am 13.9 12.4 8.3 69 2.8 ENE 6 6 3 3 1010.3 1010.2 0.0
27/05:30am 14.0 12.5 8.4 69 2.8 ENE 6 6 3 3 1010.1 1010.0 0.0
27/05:00am 13.7 11.7 8.5 71 2.6 ENE 9 11 5 6 1010.0 1009.9 0.0
27/04:30am 13.7 12.1 8.7 72 2.5 NE 7 9 4 5 1010.5 1010.4 0.0
27/04:00am 13.8 11.4 8.6 71 2.6 ENE 11 15 6 8 1010.5 1010.4 0.0
27/03:30am 14.0 11.2 8.6 70 2.7 ENE 13 19 7 10 1010.7 1010.6 0.0
27/03:00am 14.0 12.3 8.2 68 2.9 NE 7 11 4 6 1010.8 1010.7 0.0
27/02:30am 14.3 12.5 7.8 65 3.2 SE 7 9 4 5 1011.0 1010.9 0.0
27/02:00am 14.2 12.4 7.9 66 3.1 SSE 7 11 4 6 1011.2 1011.1 0.0
27/01:30am 14.2 11.6 7.9 66 3.1 SSE 11 15 6 8 1011.6 1011.5 0.0
27/01:00am 14.2 11.3 8.2 67 3.0 SE 13 19 7 10 1011.8 1011.7 0.0
27/12:30am 14.3 10.7 8.3 67 3.0 SSE 17 22 9 12 1011.6 1011.5 0.0
27/12:00am 14.7 11.7 7.7 63 3.5 S 13 20 7 11 1011.7 1011.6 0.0
 
Date/Time
EDT
Temp
°C
App
Temp
°C
Dew
Point
Rel
Hum
%
Delta-T
°C
Wind Press
QNH
hPa
Press
MSL
hPa
Rain
since 9 am
mm
Dir
 
Spd
km/h
Gust
km/h
Spd
kts
Gust
kts
26/11:30pm 14.7 10.5 7.5 62 3.6 SSW 19 24 10 13 1011.9 1011.8 0.0
26/11:00pm 14.8 10.7 7.8 63 3.5 SSW 19 24 10 13 1011.8 1011.7 0.0
26/10:30pm 14.8 11.0 7.4 61 3.7 S 17 22 9 12 1011.9 1011.8 0.0
26/10:00pm 14.9 10.6 7.9 63 3.5 S 20 24 11 13 1011.7 1011.6 0.0
26/09:30pm 14.7 10.4 7.7 63 3.5 S 20 24 11 13 1011.4 1011.3 0.0
26/09:00pm 14.8 10.4 7.6 62 3.6 S 20 24 11 13 1011.1 1011.0 0.0
26/08:30pm 14.9 10.1 7.2 60 3.8 S 22 26 12 14 1010.4 1010.3 0.0
26/08:00pm 14.9 9.1 7.9 63 3.5 S 28 32 15 17 1010.2 1010.1 0.0
26/07:30pm 15.0 10.1 8.5 65 3.3 SSE 24 30 13 16 1009.6 1009.5 0.0
26/07:00pm 15.2 9.6 8.9 66 3.2 SSE 28 33 15 18 1009.1 1009.0 0.0
26/06:30pm 15.1 9.5 8.8 66 3.2 S 28 33 15 18 1009.0 1008.9 0.0
26/06:00pm 14.8 10.4 10.4 75 2.3 S 24 32 13 17 1008.9 1008.8 0.0

Other Formats:

Comma delimited format used in spreadsheet applications
http://www.bom.gov.au/fwo/IDT60801/IDT60801.95988.axf

JavaScript Object Notation format (JSON) in row-major order
http://www.bom.gov.au/fwo/IDT60801/IDT60801.95988.json